Terminal Aerodrome Forecast
Issued by NWS Pueblo, CO

Home | Current Version | Previous Version | Text Only | Print | Product List | Glossary On
Versions: 1 2 3 4 5 6 7 8 9 10 11 12 13 14 15 16 17 18 19 20 21
000
FTUS45 KPUB 010524
TAFPUB
TAF
KPUB 010524Z 0106/0206 09007KT P6SM BKN018 BKN025
     FM010700 VRB04KT P6SM BKN015
     FM011600 VRB05KT P6SM SCT030 SCT200
     FM012000 11009KT P6SM SCT070 SCT200=

USA.gov is the U.S. government's official web portal to all federal, state and local government web resources and services.